createdAt,value
2018-05-19T00:00:54.054Z,12.57
2018-05-19T00:03:21.499Z,11.60
2018-05-19T00:05:48.945Z,12.20
2018-05-19T00:08:16.429Z,12.77
2018-05-19T00:10:44.409Z,13.00
2018-05-19T00:13:11.873Z,14.60
2018-05-19T00:15:40.100Z,13.80
2018-05-19T00:18:07.550Z,15.67
2018-05-19T00:20:35.963Z,14.50
2018-05-19T00:23:03.421Z,14.40
2018-05-19T00:25:30.897Z,13.60
2018-05-19T00:27:58.334Z,14.73
2018-05-19T00:30:25.814Z,13.90
2018-05-19T00:32:53.906Z,14.47
2018-05-19T00:35:21.386Z,12.53
2018-05-19T00:37:48.836Z,15.67
2018-05-19T00:40:16.310Z,14.20
2018-05-19T00:42:43.750Z,15.77
2018-05-19T00:45:11.204Z,15.33
2018-05-19T00:47:38.698Z,14.73
2018-05-19T00:50:06.130Z,14.50
2018-05-19T00:52:33.582Z,13.27
2018-05-19T00:55:03.740Z,15.10
2018-05-19T00:57:31.218Z,16.00
2018-05-19T00:59:58.686Z,14.73
2018-05-19T01:02:26.944Z,13.80
2018-05-19T01:04:55.065Z,14.33
2018-05-19T01:07:22.518Z,13.90
2018-05-19T01:09:49.998Z,12.37
2018-05-19T01:12:17.433Z,13.47
2018-05-19T01:14:44.913Z,13.10
2018-05-19T01:17:12.382Z,13.87
2018-05-19T01:19:39.857Z,12.10
2018-05-19T01:22:07.294Z,13.43
2018-05-19T01:24:34.883Z,13.10
2018-05-19T01:27:02.844Z,13.67
2018-05-19T01:29:30.302Z,13.27
2018-05-19T01:31:58.797Z,14.10
2018-05-19T01:34:27.052Z,13.70
2018-05-19T01:36:56.206Z,13.70
2018-05-19T01:39:23.646Z,14.57
2018-05-19T01:41:51.129Z,13.90
2018-05-19T01:44:18.605Z,16.37
2018-05-19T01:46:46.090Z,14.70
2018-05-19T01:49:13.519Z,14.87
2018-05-19T01:51:41.001Z,12.00
2018-05-19T01:54:09.380Z,14.70
2018-05-19T01:56:36.858Z,15.60
2018-05-19T01:59:05.091Z,16.53
2018-05-19T02:01:32.546Z,16.10
2018-05-19T02:03:59.995Z,13.43
2018-05-19T02:06:27.468Z,14.90
2018-05-19T02:08:54.902Z,14.47
2018-05-19T02:11:22.386Z,15.90
2018-05-19T02:13:49.829Z,15.80
2018-05-19T02:16:17.399Z,14.07
2018-05-19T02:18:44.870Z,16.37
2018-05-19T02:21:12.310Z,15.60
2018-05-19T02:23:39.787Z,14.87
2018-05-19T02:26:07.223Z,15.37
2018-05-19T02:28:34.703Z,15.50
2018-05-19T02:31:02.940Z,13.97
2018-05-19T02:33:30.431Z,15.40
2018-05-19T02:35:59.402Z,14.93
2018-05-19T02:38:26.874Z,15.33
2018-05-19T02:40:55.854Z,15.23
2018-05-19T02:43:23.296Z,16.20
2018-05-19T02:45:50.750Z,15.60
2018-05-19T02:48:18.967Z,16.03
2018-05-19T02:50:47.185Z,14.47
2018-05-19T02:53:14.635Z,15.80
2018-05-19T02:55:42.095Z,15.27
2018-05-19T02:58:09.544Z,16.30
2018-05-19T03:00:37.914Z,16.07
2018-05-19T03:03:06.339Z,17.43
2018-05-19T03:05:33.794Z,17.80
2018-05-19T03:08:01.248Z,20.67
2018-05-19T03:10:28.702Z,18.90
2018-05-19T03:12:56.183Z,18.93
2018-05-19T03:15:23.619Z,18.47
2018-05-19T03:17:51.101Z,20.13
2018-05-19T03:20:18.569Z,21.07
2018-05-19T03:22:46.041Z,18.87
2018-05-19T03:25:14.559Z,20.33
2018-05-19T03:27:42.845Z,17.47
2018-05-19T03:30:10.730Z,17.13
2018-05-19T03:32:38.210Z,16.87
2018-05-19T03:35:05.686Z,15.90
2018-05-19T03:37:33.914Z,15.07
2018-05-19T03:40:01.390Z,15.03
2018-05-19T03:42:28.875Z,15.77
2018-05-19T03:44:57.106Z,16.43
2018-05-19T03:47:24.543Z,16.63
2018-05-19T03:49:52.022Z,17.23
2018-05-19T03:52:19.539Z,18.23
2018-05-19T03:54:46.919Z,19.73
2018-05-19T03:57:26.201Z,18.20
2018-05-19T04:00:06.363Z,18.63
2018-05-19T04:02:35.857Z,19.17
2018-05-19T04:05:04.090Z,20.17
2018-05-19T04:07:31.559Z,21.40
2018-05-19T04:09:59.012Z,20.13
2018-05-19T04:12:26.452Z,21.30
2018-05-19T04:14:53.966Z,21.27
2018-05-19T04:17:24.646Z,23.27
2018-05-19T04:19:52.117Z,23.73
2018-05-19T04:22:19.566Z,20.07
2018-05-19T04:24:47.033Z,26.73
2018-05-19T04:27:14.490Z,24.40
2018-05-19T04:29:41.934Z,25.00
2018-05-19T04:32:09.418Z,24.20
2018-05-19T04:34:36.856Z,23.63
2018-05-19T04:37:04.302Z,22.50
2018-05-19T04:39:32.531Z,22.80
2018-05-19T04:42:00.822Z,24.53
2018-05-19T04:44:28.246Z,23.87
2018-05-19T04:46:55.726Z,24.07
2018-05-19T04:49:23.946Z,20.20
2018-05-19T04:51:51.439Z,22.33
2018-05-19T04:54:18.892Z,21.27
2018-05-19T04:56:46.395Z,21.60
2018-05-19T04:59:13.840Z,21.77
2018-05-19T05:01:42.069Z,22.33
2018-05-19T05:04:09.590Z,20.83
2018-05-19T05:06:38.710Z,20.27
2018-05-19T05:09:07.136Z,21.10
2018-05-19T05:11:35.362Z,19.73
2018-05-19T05:14:03.571Z,19.57
2018-05-19T05:16:31.406Z,17.53
2018-05-19T05:18:58.858Z,19.43
2018-05-19T05:21:26.313Z,16.97
2018-05-19T05:23:53.798Z,15.50
2018-05-19T05:26:21.273Z,15.60
2018-05-19T05:28:49.510Z,16.30
2018-05-19T05:31:16.952Z,15.07
2018-05-19T05:33:44.446Z,15.87
2018-05-19T05:36:11.896Z,16.03
2018-05-19T05:38:39.350Z,16.30
2018-05-19T05:41:06.805Z,15.17
2018-05-19T05:43:34.641Z,15.07
2018-05-19T05:46:02.126Z,14.20
2018-05-19T05:48:29.565Z,14.40
2018-05-19T05:50:57.054Z,14.30
2018-05-19T05:53:24.537Z,14.37
2018-05-19T05:55:52.750Z,14.80
2018-05-19T05:58:20.206Z,14.57
2018-05-19T06:00:47.690Z,13.73
2018-05-19T06:03:15.150Z,13.23
2018-05-19T06:05:44.132Z,13.37
2018-05-19T06:08:11.581Z,13.50
2018-05-19T06:10:39.039Z,12.00
2018-05-19T06:13:06.533Z,12.30
2018-05-19T06:15:33.969Z,12.30
2018-05-19T06:18:01.865Z,12.63
2018-05-19T06:20:30.082Z,11.87
2018-05-19T06:22:57.562Z,12.20
2018-05-19T06:25:25.038Z,13.03
2018-05-19T06:27:53.257Z,12.30
2018-05-19T06:30:20.770Z,13.17
2018-05-19T06:32:48.208Z,12.60
2018-05-19T06:35:15.697Z,12.97
2018-05-19T06:37:43.946Z,11.47
2018-05-19T06:40:11.418Z,11.63
2018-05-19T06:42:38.899Z,11.50
2018-05-19T06:45:07.141Z,10.33
2018-05-19T06:47:34.613Z,11.77
2018-05-19T06:50:02.100Z,11.23
2018-05-19T06:52:30.314Z,11.40
2018-05-19T06:54:57.770Z,10.83
2018-05-19T06:57:25.254Z,12.67
2018-05-19T06:59:52.702Z,11.80
2018-05-19T07:02:20.157Z,10.83
2018-05-19T07:04:47.666Z,10.13
2018-05-19T07:07:15.220Z,10.73
2018-05-19T07:09:43.281Z,10.50
2018-05-19T07:12:11.549Z,10.23
2018-05-19T07:14:39.793Z,10.10
2018-05-19T07:17:07.247Z,10.60
2018-05-19T07:19:34.730Z,10.47
2018-05-19T07:22:02.202Z,10.20
2018-05-19T07:24:30.427Z,9.67
2018-05-19T07:26:57.919Z,9.63
2018-05-19T07:29:25.765Z,9.33
2018-05-19T07:31:53.981Z,10.07
2018-05-19T07:34:21.454Z,8.40
2018-05-19T07:36:48.910Z,9.30
2018-05-19T07:39:16.390Z,8.50
2018-05-19T07:41:43.858Z,8.40
2018-05-19T07:44:11.313Z,8.60
2018-05-19T07:46:38.785Z,9.10
2018-05-19T07:49:06.230Z,9.40
2018-05-19T07:51:33.717Z,8.53
2018-05-19T07:54:01.182Z,9.00
2018-05-19T07:56:29.431Z,8.07
2018-05-19T07:58:56.897Z,8.47
2018-05-19T08:01:24.354Z,8.30
2018-05-19T08:03:52.990Z,8.00
2018-05-19T08:06:20.462Z,6.87
2018-05-19T08:08:47.933Z,7.30
2018-05-19T08:11:15.483Z,7.30
2018-05-19T08:13:42.902Z,6.83
2018-05-19T08:16:11.174Z,7.60
2018-05-19T08:18:39.414Z,7.50
2018-05-19T08:21:06.859Z,7.47
2018-05-19T08:23:34.314Z,6.57
2018-05-19T08:26:01.794Z,7.07
2018-05-19T08:28:29.300Z,5.73
2018-05-19T08:30:57.523Z,6.40
2018-05-19T08:33:24.996Z,7.93
2018-05-19T08:35:52.485Z,7.13
2018-05-19T08:38:19.962Z,6.53
2018-05-19T08:40:47.436Z,6.50
2018-05-19T08:43:15.103Z,6.60
2018-05-19T08:45:42.577Z,6.87
2018-05-19T08:48:10.033Z,5.77
2018-05-19T08:50:37.952Z,7.20
2018-05-19T08:53:05.366Z,7.00
2018-05-19T08:55:32.830Z,8.20
2018-05-19T08:58:01.072Z,6.77
2018-05-19T09:00:28.518Z,7.90
2018-05-19T09:02:55.994Z,7.60
2018-05-19T09:05:23.444Z,7.23
2018-05-19T09:07:50.914Z,7.87
2018-05-19T09:10:18.362Z,7.83
2018-05-19T09:12:45.831Z,7.70
2018-05-19T09:15:13.293Z,7.47
2018-05-19T09:17:40.744Z,7.60
2018-05-19T09:20:08.279Z,7.33
2018-05-19T09:22:35.758Z,6.87
2018-05-19T09:25:03.199Z,7.53
2018-05-19T09:27:30.666Z,7.97
2018-05-19T09:29:58.159Z,9.07
2018-05-19T09:32:26.399Z,7.53
2018-05-19T09:34:53.897Z,7.60
2018-05-19T09:37:22.089Z,7.10
2018-05-19T09:39:49.577Z,7.30
2018-05-19T09:42:17.036Z,8.10
2018-05-19T09:44:44.474Z,7.60
2018-05-19T09:47:11.957Z,9.37
2018-05-19T09:49:39.390Z,7.07
2018-05-19T09:52:06.860Z,7.53
2018-05-19T09:54:34.503Z,7.50
2018-05-19T09:57:03.208Z,7.77
2018-05-19T09:59:30.745Z,8.20
2018-05-19T10:01:58.099Z,7.40
2018-05-19T10:04:25.571Z,7.07
2018-05-19T10:06:53.042Z,6.87
2018-05-19T10:09:20.510Z,6.30
2018-05-19T10:11:47.987Z,6.30
2018-05-19T10:14:15.458Z,7.43
2018-05-19T10:16:43.691Z,7.57
2018-05-19T10:19:11.172Z,6.63
2018-05-19T10:21:39.421Z,6.17
2018-05-19T10:24:07.266Z,6.43
2018-05-19T10:26:34.719Z,7.10
2018-05-19T10:29:02.174Z,7.40
2018-05-19T10:31:29.624Z,6.60
2018-05-19T10:33:57.086Z,7.40
2018-05-19T10:36:24.566Z,6.93
2018-05-19T10:38:52.014Z,7.10
2018-05-19T10:41:19.460Z,5.60
2018-05-19T10:43:46.942Z,6.10
2018-05-19T10:46:14.394Z,6.63
2018-05-19T10:48:42.639Z,6.50
2018-05-19T10:51:10.107Z,7.00
2018-05-19T10:53:37.584Z,7.57
2018-05-19T10:56:05.022Z,6.90
2018-05-19T10:58:33.354Z,7.20
2018-05-19T11:01:01.591Z,6.10
2018-05-19T11:03:29.048Z,6.67
2018-05-19T11:05:56.811Z,6.27
2018-05-19T11:08:24.275Z,6.57
2018-05-19T11:10:51.746Z,6.63
2018-05-19T11:13:19.222Z,6.60
2018-05-19T11:15:46.688Z,5.90
2018-05-19T11:18:14.910Z,7.57
2018-05-19T11:20:42.347Z,6.27
2018-05-19T11:23:09.832Z,6.63
2018-05-19T11:25:37.337Z,5.93
2018-05-19T11:28:04.735Z,6.67
2018-05-19T11:30:32.203Z,5.70
2018-05-19T11:32:59.686Z,6.17
2018-05-19T11:35:27.413Z,6.63
2018-05-19T11:37:54.886Z,7.10
2018-05-19T11:40:22.350Z,6.03
2018-05-19T11:42:49.832Z,6.37
2018-05-19T11:45:17.266Z,6.30
2018-05-19T11:47:44.762Z,6.30
2018-05-19T11:50:13.897Z,5.70
2018-05-19T11:52:41.367Z,6.00
2018-05-19T11:55:08.818Z,6.80
2018-05-19T11:57:36.266Z,6.60
2018-05-19T12:00:03.744Z,5.50
2018-05-19T12:02:31.983Z,7.97
2018-05-19T12:05:00.287Z,6.50
2018-05-19T12:07:27.762Z,6.30
2018-05-19T12:09:55.242Z,5.77
2018-05-19T12:12:22.752Z,5.90
2018-05-19T12:14:50.130Z,5.70
2018-05-19T12:17:17.611Z,6.10
2018-05-19T12:19:45.082Z,6.40
2018-05-19T12:22:13.310Z,5.70
2018-05-19T12:24:40.754Z,5.97
2018-05-19T12:27:08.207Z,6.17
2018-05-19T12:29:35.693Z,5.57
2018-05-19T12:32:03.155Z,7.53
2018-05-19T12:34:30.627Z,6.13
2018-05-19T12:36:58.072Z,6.73
2018-05-19T12:39:25.951Z,6.17
2018-05-19T12:41:54.211Z,5.33
2018-05-19T12:44:21.682Z,4.70
2018-05-19T12:46:49.127Z,5.90
2018-05-19T12:49:16.594Z,4.83
2018-05-19T12:51:44.070Z,5.80
2018-05-19T12:54:12.302Z,5.43
2018-05-19T12:56:39.755Z,6.17
2018-05-19T12:59:07.226Z,6.63
2018-05-19T13:01:34.699Z,6.40
2018-05-19T13:04:02.953Z,6.93
2018-05-19T13:06:30.422Z,6.57
2018-05-19T13:08:59.426Z,6.67
2018-05-19T13:11:26.887Z,6.00
2018-05-19T13:13:55.127Z,5.27
2018-05-19T13:16:22.593Z,5.20
2018-05-19T13:18:50.049Z,5.77
2018-05-19T13:21:17.519Z,5.83
2018-05-19T13:23:44.990Z,5.90
2018-05-19T13:26:12.467Z,6.27
2018-05-19T13:28:41.226Z,6.00
2018-05-19T13:31:08.694Z,6.60
2018-05-19T13:33:36.907Z,7.30
2018-05-19T13:36:04.391Z,7.27
2018-05-19T13:38:32.675Z,7.37
2018-05-19T13:41:00.118Z,6.90
2018-05-19T13:43:27.576Z,7.37
2018-05-19T13:45:55.058Z,5.30
2018-05-19T13:48:22.526Z,6.30
2018-05-19T13:50:49.974Z,6.47
2018-05-19T13:53:17.445Z,6.53
2018-05-19T13:55:45.670Z,6.30
2018-05-19T13:58:13.141Z,6.20
2018-05-19T14:00:40.591Z,5.70
2018-05-19T14:03:08.059Z,6.23
2018-05-19T14:05:35.506Z,6.20
2018-05-19T14:08:03.400Z,6.20
2018-05-19T14:10:30.861Z,6.37
2018-05-19T14:12:58.308Z,6.37
2018-05-19T14:15:25.785Z,6.20
2018-05-19T14:17:53.265Z,5.93
2018-05-19T14:20:20.709Z,5.83
2018-05-19T14:22:48.969Z,6.50
2018-05-19T14:25:16.441Z,7.00
2018-05-19T14:27:45.745Z,6.90
2018-05-19T14:30:13.882Z,6.40
2018-05-19T14:32:41.357Z,7.40
2018-05-19T14:35:08.804Z,7.00
2018-05-19T14:37:36.261Z,7.70
2018-05-19T14:40:03.718Z,7.97
2018-05-19T14:42:31.194Z,8.20
2018-05-19T14:44:59.406Z,7.73
2018-05-19T14:47:27.318Z,7.00
2018-05-19T14:49:54.775Z,7.50
2018-05-19T14:52:22.254Z,8.10
2018-05-19T14:54:50.470Z,7.80
2018-05-19T14:57:17.920Z,7.57
2018-05-19T14:59:45.918Z,9.03
2018-05-19T15:02:13.391Z,7.47
2018-05-19T15:04:40.870Z,7.17
2018-05-19T15:07:09.101Z,9.43
2018-05-19T15:09:36.563Z,8.63
2018-05-19T15:12:04.016Z,8.50
2018-05-19T15:14:31.571Z,8.33
2018-05-19T15:16:59.013Z,8.30
2018-05-19T15:19:26.489Z,7.93
2018-05-19T15:21:53.934Z,8.17
2018-05-19T15:24:21.384Z,7.73
2018-05-19T15:26:48.856Z,7.57
2018-05-19T15:29:16.310Z,8.13
2018-05-19T15:31:43.792Z,8.33
2018-05-19T15:34:11.845Z,8.47
2018-05-19T15:36:39.346Z,8.23
2018-05-19T15:39:07.594Z,8.13
2018-05-19T15:41:35.040Z,6.90
2018-05-19T15:44:02.533Z,8.20
2018-05-19T15:46:30.741Z,7.80
2018-05-19T15:48:58.194Z,8.10
2018-05-19T15:51:25.650Z,7.60
2018-05-19T15:53:53.133Z,8.10
2018-05-19T15:56:20.610Z,8.50
2018-05-19T15:58:48.055Z,7.70
2018-05-19T16:01:15.550Z,7.53
2018-05-19T16:03:44.177Z,8.60
2018-05-19T16:06:11.642Z,9.27
2018-05-19T16:08:39.199Z,7.30
2018-05-19T16:11:07.453Z,7.13
2018-05-19T16:13:34.930Z,8.30
2018-05-19T16:16:02.405Z,8.13
2018-05-19T16:18:29.874Z,7.57
2018-05-19T16:20:58.123Z,7.10
2018-05-19T16:23:25.569Z,7.67
2018-05-19T16:25:53.017Z,8.00
2018-05-19T16:28:20.503Z,7.37
2018-05-19T16:30:47.951Z,7.50
2018-05-19T16:33:15.407Z,7.23
2018-05-19T16:35:42.998Z,7.43
2018-05-19T16:38:10.475Z,7.30
2018-05-19T16:40:37.942Z,7.07
2018-05-19T16:43:06.162Z,7.70
2018-05-19T16:45:33.622Z,7.80
2018-05-19T16:48:02.140Z,6.67
2018-05-19T16:50:29.594Z,7.40
2018-05-19T16:52:57.081Z,7.03
2018-05-19T16:55:24.535Z,7.70
2018-05-19T16:57:51.978Z,7.83
2018-05-19T17:00:20.304Z,8.23
2018-05-19T17:02:49.422Z,7.63
2018-05-19T17:05:16.887Z,6.90
2018-05-19T17:07:44.375Z,6.90
2018-05-19T17:10:12.587Z,6.90
2018-05-19T17:12:40.075Z,7.33
2018-05-19T17:15:07.514Z,7.20
2018-05-19T17:17:34.959Z,6.63
2018-05-19T17:20:03.140Z,7.07
2018-05-19T17:22:30.615Z,7.30
2018-05-19T17:24:58.082Z,6.70
2018-05-19T17:27:25.526Z,8.60
2018-05-19T17:29:53.018Z,7.30
2018-05-19T17:32:21.248Z,8.30
2018-05-19T17:34:48.718Z,7.20
2018-05-19T17:37:16.186Z,7.13
2018-05-19T17:39:43.859Z,6.70
2018-05-19T17:42:11.339Z,6.83
2018-05-19T17:44:38.813Z,6.47
2018-05-19T17:47:06.294Z,6.10
2018-05-19T17:49:33.739Z,7.20
2018-05-19T17:52:01.219Z,5.73
2018-05-19T17:54:28.711Z,6.33
2018-05-19T17:56:56.948Z,6.70
2018-05-19T17:59:24.411Z,6.47
2018-05-19T18:01:51.866Z,6.63
2018-05-19T18:04:19.370Z,6.90
2018-05-19T18:06:46.769Z,6.67
2018-05-19T18:09:14.257Z,5.87
2018-05-19T18:11:41.700Z,6.07
2018-05-19T18:14:09.197Z,6.10
2018-05-19T18:16:37.431Z,5.80
2018-05-19T18:19:04.907Z,6.10
2018-05-19T18:21:32.400Z,6.63
2018-05-19T18:23:59.875Z,6.50
2018-05-19T18:26:27.322Z,6.53
2018-05-19T18:28:55.615Z,6.63
2018-05-19T18:31:23.070Z,6.30
2018-05-19T18:33:50.527Z,6.20
2018-05-19T18:36:17.992Z,6.17
2018-05-19T18:38:45.482Z,5.80
2018-05-19T18:41:12.933Z,6.73
2018-05-19T18:43:40.409Z,6.40
2018-05-19T18:46:08.664Z,7.10
2018-05-19T18:48:36.102Z,6.40
2018-05-19T18:51:03.547Z,6.50
2018-05-19T18:53:31.056Z,6.37
2018-05-19T18:55:59.291Z,7.27
2018-05-19T18:58:26.762Z,6.97
2018-05-19T19:00:54.214Z,6.70
2018-05-19T19:03:21.686Z,7.10
2018-05-19T19:05:49.125Z,7.20
2018-05-19T19:08:16.598Z,7.13
2018-05-19T19:10:44.064Z,7.77
2018-05-19T19:13:11.514Z,7.23
2018-05-19T19:15:39.794Z,8.40
2018-05-19T19:18:07.271Z,7.33
2018-05-19T19:20:35.968Z,7.53
2018-05-19T19:23:03.418Z,7.93
2018-05-19T19:25:30.916Z,7.83
2018-05-19T19:27:58.391Z,8.10
2018-05-19T19:30:25.863Z,10.10
2018-05-19T19:32:53.342Z,9.30
2018-05-19T19:35:21.586Z,10.30
2018-05-19T19:37:49.031Z,8.67
2018-05-19T19:40:16.502Z,9.70
2018-05-19T19:42:44.031Z,10.33
2018-05-19T19:45:11.409Z,9.70
2018-05-19T19:47:39.179Z,9.83
2018-05-19T19:50:06.747Z,10.53
2018-05-19T19:52:34.902Z,10.60
2018-05-19T19:55:02.378Z,10.37
2018-05-19T19:57:29.856Z,10.50
2018-05-19T19:59:58.079Z,10.27
2018-05-19T20:02:25.606Z,9.93
2018-05-19T20:04:53.100Z,10.07
2018-05-19T20:07:20.576Z,10.33
2018-05-19T20:09:48.052Z,9.43
2018-05-19T20:12:16.010Z,11.40
2018-05-19T20:14:43.467Z,9.40
2018-05-19T20:17:10.951Z,10.20
2018-05-19T20:19:39.194Z,9.10
2018-05-19T20:22:06.684Z,9.03
2018-05-19T20:24:34.926Z,11.10
2018-05-19T20:27:02.487Z,9.87
2018-05-19T20:29:29.948Z,9.60
2018-05-19T20:31:57.423Z,8.97
2018-05-19T20:34:24.913Z,9.60
2018-05-19T20:36:52.370Z,10.23
2018-05-19T20:39:19.842Z,8.30
2018-05-19T20:41:47.298Z,8.47
2018-05-19T20:44:14.787Z,8.67
2018-05-19T20:46:42.270Z,10.17
2018-05-19T20:49:10.491Z,9.77
2018-05-19T20:51:37.970Z,10.23
2018-05-19T20:54:05.442Z,9.73
2018-05-19T20:56:32.891Z,9.13
2018-05-19T20:59:00.353Z,8.10
2018-05-19T21:01:27.809Z,7.97
2018-05-19T21:03:55.296Z,9.00
2018-05-19T21:06:23.743Z,9.40
2018-05-19T21:08:51.198Z,8.53
2018-05-19T21:11:18.695Z,10.20
2018-05-19T21:13:46.939Z,11.07
2018-05-19T21:16:14.387Z,10.90
2018-05-19T21:18:41.863Z,9.60
2018-05-19T21:21:09.310Z,10.23
2018-05-19T21:23:36.787Z,12.17
2018-05-19T21:26:05.030Z,10.10
2018-05-19T21:28:32.551Z,11.00
2018-05-19T21:31:00.031Z,11.10
2018-05-19T21:33:27.487Z,10.03
2018-05-19T21:35:54.943Z,12.47
2018-05-19T21:38:22.450Z,10.87
2018-05-19T21:40:50.660Z,9.97
2018-05-19T21:43:18.201Z,9.70
2018-05-19T21:45:45.609Z,11.13
2018-05-19T21:48:13.715Z,11.80
2018-05-19T21:50:41.951Z,10.80
2018-05-19T21:53:09.441Z,11.00
2018-05-19T21:55:37.654Z,10.70
2018-05-19T21:58:05.154Z,10.00
2018-05-19T22:00:32.643Z,9.73
2018-05-19T22:03:00.865Z,9.87
2018-05-19T22:05:28.363Z,9.50
2018-05-19T22:07:55.812Z,10.20
2018-05-19T22:10:23.683Z,11.07
2018-05-19T22:12:51.155Z,10.73
2018-05-19T22:15:19.408Z,10.57
2018-05-19T22:17:47.212Z,10.40
2018-05-19T22:20:14.689Z,10.00
2018-05-19T22:22:42.137Z,10.30
2018-05-19T22:25:09.606Z,10.13
2018-05-19T22:27:37.062Z,9.60
2018-05-19T22:30:05.395Z,10.30
2018-05-19T22:32:33.608Z,10.13
2018-05-19T22:35:01.101Z,10.20
2018-05-19T22:37:28.538Z,10.97
2018-05-19T22:39:56.000Z,10.87
2018-05-19T22:42:24.618Z,9.70
2018-05-19T22:44:52.986Z,11.47
2018-05-19T22:47:20.487Z,11.90
2018-05-19T22:49:47.926Z,11.00
2018-05-19T22:52:16.146Z,12.00
2018-05-19T22:54:43.592Z,10.80
2018-05-19T22:57:11.856Z,11.63
2018-05-19T22:59:39.331Z,12.50
2018-05-19T23:02:06.775Z,10.23
2018-05-19T23:04:34.277Z,9.63
2018-05-19T23:07:03.279Z,11.33
2018-05-19T23:09:30.722Z,10.90
2018-05-19T23:11:58.445Z,11.20
2018-05-19T23:14:26.414Z,11.43
2018-05-19T23:16:53.877Z,11.83
2018-05-19T23:19:21.369Z,11.67
2018-05-19T23:21:48.818Z,12.20
2018-05-19T23:24:16.273Z,11.40
2018-05-19T23:26:43.739Z,11.17
2018-05-19T23:29:11.203Z,12.60
2018-05-19T23:31:38.651Z,12.13
2018-05-19T23:34:06.114Z,12.33
2018-05-19T23:36:33.605Z,12.30
2018-05-19T23:39:03.387Z,12.73
2018-05-19T23:41:30.870Z,11.23
2018-05-19T23:43:59.118Z,12.63
2018-05-19T23:46:26.601Z,13.23
2018-05-19T23:48:54.832Z,13.67
2018-05-19T23:51:22.316Z,12.90
2018-05-19T23:53:49.789Z,13.40
2018-05-19T23:56:18.054Z,13.10
2018-05-19T23:58:45.544Z,14.50
